Rina Amoretti — IBRR — position and weather

sailwx.info

Track history (hours):
 
Tides and Currents Weather Stations Pressure Air Temp Water Temp Dewpoint Dewpoint Depression Visibility Wind Speed Wind Dir Waves Ship Positions

Rina Amoretti

Last reported at 2014-Sep-18 03:04 UTC. Time now 2014-Sep-18 09:37 UTC.
Position N 40°50' E 014°17'.

Length 120 m; draft 7.1 m.

Type: Ship (hazmat cat A). MMSI: 247197000.

Date/timePositionNaut miles runAvg speedWind from/ knotsBaromVisibWave heightAir tempDewpointWater temp
2014-Sep-18 03:04N 40°50' E 014°17'0 0.0
2014-Sep-18 01:31N 40°50' E 014°17'0 0.0
2014-Sep-18 00:31N 40°50' E 014°17'0 0.0
2014-Sep-17 23:31N 40°50' E 014°17'0 0.0
2014-Sep-17 22:31N 40°50' E 014°17'0 0.0
2014-Sep-17 21:22N 40°50' E 014°17'0 0.0
2014-Sep-17 20:19N 40°50' E 014°17'0 0.0
2014-Sep-17 19:31N 40°50' E 014°17'0 0.0
2014-Sep-17 18:31N 40°50' E 014°17'0 0.0
2014-Sep-17 17:16N 40°50' E 014°17'0 0.0
2014-Sep-17 16:22N 40°50' E 014°17'0 0.2
2014-Sep-17 15:25N 40°50' E 014°17'3 3.0
2014-Sep-17 14:33N 40°48' E 014°20'0 0.0
2014-Sep-17 13:12N 40°48' E 014°20'  
2014-Sep-14 02:18N 38°13' E 014°17'1013.9
2014-Sep-14 01:33N 38°12' E 014°04'30 7.5
2014-Sep-13 21:34N 38°06' E 013°26'0 0.0
2014-Sep-13 20:28N 38°06' E 013°26'0 0.0
2014-Sep-13 19:33N 38°06' E 013°26'0 0.0
2014-Sep-13 18:33N 38°06' E 013°26'0 0.0
2014-Sep-13 17:33N 38°06' E 013°26'0 0.0
2014-Sep-13 16:27N 38°06' E 013°26'0 0.0
2014-Sep-13 15:33N 38°06' E 013°26'0 0.0
2014-Sep-13 14:33N 38°06' E 013°26'0 0.0
2014-Sep-13 13:33N 38°06' E 013°26'0 0.0
2014-Sep-13 12:30N 38°06' E 013°26'0 0.0
2014-Sep-13 11:33N 38°06' E 013°26'0 0.0
2014-Sep-13 10:33N 38°06' E 013°26'0 0.0
2014-Sep-13 09:33N 38°06' E 013°26'0 0.0
2014-Sep-13 08:33N 38°06' E 013°26'0 0.0
2014-Sep-13 07:33N 38°06' E 013°26'1 0.8
2014-Sep-13 06:33N 38°06' E 013°27'8 8.4
2014-Sep-13 05:33N 38°10' E 013°37'1312.9
2014-Sep-13 04:33N 38°11' E 013°53'1312.8
2014-Sep-13 03:33N 38°13' E 014°10'  
2014-Sep-09 11:06N 40°11' E 014°24'40 2.1
2014-Sep-08 16:17N 40°50' E 014°18'0 0.0
2014-Sep-08 15:32N 40°50' E 014°18'0 0.0
2014-Sep-08 13:08N 40°50' E 014°18'2 0.4
2014-Sep-08 08:30N 40°48' E 014°19'  
Track history (hours):
 
Tides and Currents Weather Stations Pressure Air Temp Water Temp Dewpoint Dewpoint Depression Visibility Wind Speed Wind Dir Waves Ship Positions

Rina Amoretti

Last reported at 2014-Sep-18 03:04 UTC. Time now 2014-Sep-18 09:37 UTC.
Position N 40°50' E 014°17'.

Length 120 m; draft 7.1 m.

Type: Ship (hazmat cat A). MMSI: 247197000.

Date/timePositionNaut miles runAvg speedWind from/ knotsBaromVisibWave heightAir tempDewpointWater temp
2014-Sep-18 03:04N 40°50' E 014°17'0 0.0
2014-Sep-18 01:31N 40°50' E 014°17'0 0.0
2014-Sep-18 00:31N 40°50' E 014°17'0 0.0
2014-Sep-17 23:31N 40°50' E 014°17'0 0.0
2014-Sep-17 22:31N 40°50' E 014°17'0 0.0
2014-Sep-17 21:22N 40°50' E 014°17'0 0.0
2014-Sep-17 20:19N 40°50' E 014°17'0 0.0
2014-Sep-17 19:31N 40°50' E 014°17'0 0.0
2014-Sep-17 18:31N 40°50' E 014°17'0 0.0
2014-Sep-17 17:16N 40°50' E 014°17'0 0.0
2014-Sep-17 16:22N 40°50' E 014°17'0 0.2
2014-Sep-17 15:25N 40°50' E 014°17'3 3.0
2014-Sep-17 14:33N 40°48' E 014°20'0 0.0
2014-Sep-17 13:12N 40°48' E 014°20'  
2014-Sep-14 02:18N 38°13' E 014°17'1013.9
2014-Sep-14 01:33N 38°12' E 014°04'30 7.5
2014-Sep-13 21:34N 38°06' E 013°26'0 0.0
2014-Sep-13 20:28N 38°06' E 013°26'0 0.0
2014-Sep-13 19:33N 38°06' E 013°26'0 0.0
2014-Sep-13 18:33N 38°06' E 013°26'0 0.0
2014-Sep-13 17:33N 38°06' E 013°26'0 0.0
2014-Sep-13 16:27N 38°06' E 013°26'0 0.0
2014-Sep-13 15:33N 38°06' E 013°26'0 0.0
2014-Sep-13 14:33N 38°06' E 013°26'0 0.0
2014-Sep-13 13:33N 38°06' E 013°26'0 0.0
2014-Sep-13 12:30N 38°06' E 013°26'0 0.0
2014-Sep-13 11:33N 38°06' E 013°26'0 0.0
2014-Sep-13 10:33N 38°06' E 013°26'0 0.0
2014-Sep-13 09:33N 38°06' E 013°26'0 0.0
2014-Sep-13 08:33N 38°06' E 013°26'0 0.0
2014-Sep-13 07:33N 38°06' E 013°26'1 0.8
2014-Sep-13 06:33N 38°06' E 013°27'8 8.4
2014-Sep-13 05:33N 38°10' E 013°37'1312.9
2014-Sep-13 04:33N 38°11' E 013°53'1312.8
2014-Sep-13 03:33N 38°13' E 014°10'  
2014-Sep-09 11:06N 40°11' E 014°24'40 2.1
2014-Sep-08 16:17N 40°50' E 014°18'0 0.0
2014-Sep-08 15:32N 40°50' E 014°18'0 0.0
2014-Sep-08 13:08N 40°50' E 014°18'2 0.4
2014-Sep-08 08:30N 40°48' E 014°19'  

Dump ship's entire track history